sensor_id;sensor_type;location;lat;lon;timestamp;P1;durP1;ratioP1;P2;durP2;ratioP2
64085;SDS011;50333;47.436;21.390;2023-01-04T00:01:31;27.23;;;17.27;;
64085;SDS011;50333;47.436;21.390;2023-01-04T00:03:59;26.65;;;17.70;;
64085;SDS011;50333;47.436;21.390;2023-01-04T00:06:27;29.65;;;17.50;;
64085;SDS011;50333;47.436;21.390;2023-01-04T00:08:54;28.25;;;17.77;;
64085;SDS011;50333;47.436;21.390;2023-01-04T00:11:22;31.27;;;18.27;;
64085;SDS011;50333;47.436;21.390;2023-01-04T00:13:51;29.50;;;19.35;;
64085;SDS011;50333;47.436;21.390;2023-01-04T00:16:23;32.75;;;18.90;;
64085;SDS011;50333;47.436;21.390;2023-01-04T00:18:52;37.47;;;20.27;;
64085;SDS011;50333;47.436;21.390;2023-01-04T00:21:24;39.08;;;20.77;;
64085;SDS011;50333;47.436;21.390;2023-01-04T00:23:58;32.05;;;18.90;;
64085;SDS011;50333;47.436;21.390;2023-01-04T00:26:28;39.30;;;20.25;;
64085;SDS011;50333;47.436;21.390;2023-01-04T00:28:59;47.35;;;22.58;;
64085;SDS011;50333;47.436;21.390;2023-01-04T00:31:28;50.97;;;21.40;;
64085;SDS011;50333;47.436;21.390;2023-01-04T00:33:57;52.62;;;23.27;;
64085;SDS011;50333;47.436;21.390;2023-01-04T00:36:27;40.97;;;23.33;;
64085;SDS011;50333;47.436;21.390;2023-01-04T00:38:56;38.67;;;23.65;;
64085;SDS011;50333;47.436;21.390;2023-01-04T00:41:37;51.17;;;24.33;;
64085;SDS011;50333;47.436;21.390;2023-01-04T00:44:28;48.40;;;25.08;;
64085;SDS011;50333;47.436;21.390;2023-01-04T00:46:57;40.90;;;23.10;;
64085;SDS011;50333;47.436;21.390;2023-01-04T00:49:26;55.65;;;25.42;;
64085;SDS011;50333;47.436;21.390;2023-01-04T00:51:55;56.72;;;25.52;;
64085;SDS011;50333;47.436;21.390;2023-01-04T00:54:24;62.95;;;27.30;;
64085;SDS011;50333;47.436;21.390;2023-01-04T00:56:52;68.12;;;26.50;;
64085;SDS011;50333;47.436;21.390;2023-01-04T00:59:20;48.97;;;26.77;;
64085;SDS011;50333;47.436;21.390;2023-01-04T01:01:49;84.60;;;26.92;;
64085;SDS011;50333;47.436;21.390;2023-01-04T01:04:19;64.35;;;27.15;;
64085;SDS011;50333;47.436;21.390;2023-01-04T01:06:49;51.72;;;27.67;;
64085;SDS011;50333;47.436;21.390;2023-01-04T01:09:18;55.12;;;26.33;;
64085;SDS011;50333;47.436;21.390;2023-01-04T01:11:50;70.75;;;27.80;;
64085;SDS011;50333;47.436;21.390;2023-01-04T01:14:20;75.50;;;27.62;;
64085;SDS011;50333;47.436;21.390;2023-01-04T01:16:50;61.05;;;28.85;;
64085;SDS011;50333;47.436;21.390;2023-01-04T01:19:23;59.45;;;27.75;;
64085;SDS011;50333;47.436;21.390;2023-01-04T01:21:55;85.53;;;27.62;;
64085;SDS011;50333;47.436;21.390;2023-01-04T01:24:24;56.75;;;26.77;;
64085;SDS011;50333;47.436;21.390;2023-01-04T01:26:52;105.12;;;28.65;;
64085;SDS011;50333;47.436;21.390;2023-01-04T01:29:21;64.97;;;28.05;;
64085;SDS011;50333;47.436;21.390;2023-01-04T01:31:49;80.03;;;29.05;;
64085;SDS011;50333;47.436;21.390;2023-01-04T01:34:17;83.72;;;28.20;;
64085;SDS011;50333;47.436;21.390;2023-01-04T01:36:45;62.62;;;29.63;;
64085;SDS011;50333;47.436;21.390;2023-01-04T01:39:12;76.57;;;29.12;;
64085;SDS011;50333;47.436;21.390;2023-01-04T01:41:41;51.75;;;27.70;;
64085;SDS011;50333;47.436;21.390;2023-01-04T01:46:41;73.13;;;29.37;;
64085;SDS011;50333;47.436;21.390;2023-01-04T01:49:16;61.63;;;29.08;;
64085;SDS011;50333;47.436;21.390;2023-01-04T01:52:00;57.47;;;28.23;;
64085;SDS011;50333;47.436;21.390;2023-01-04T01:54:32;91.97;;;26.60;;
64085;SDS011;50333;47.436;21.390;2023-01-04T01:57:03;53.78;;;28.00;;
64085;SDS011;50333;47.436;21.390;2023-01-04T01:59:37;78.25;;;30.27;;
64085;SDS011;50333;47.436;21.390;2023-01-04T02:02:09;99.00;;;30.58;;
64085;SDS011;50333;47.436;21.390;2023-01-04T02:04:39;63.22;;;29.17;;
64085;SDS011;50333;47.436;21.390;2023-01-04T02:07:11;83.35;;;29.60;;
64085;SDS011;50333;47.436;21.390;2023-01-04T02:09:43;87.97;;;28.05;;
64085;SDS011;50333;47.436;21.390;2023-01-04T02:12:13;63.10;;;28.33;;
64085;SDS011;50333;47.436;21.390;2023-01-04T02:14:41;67.15;;;27.23;;
64085;SDS011;50333;47.436;21.390;2023-01-04T02:31:52;70.87;;;25.40;;
64085;SDS011;50333;47.436;21.390;2023-01-04T02:45:44;93.32;;;30.12;;
64085;SDS011;50333;47.436;21.390;2023-01-04T02:48:27;34.80;;;21.80;;
64085;SDS011;50333;47.436;21.390;2023-01-04T02:51:25;32.38;;;21.25;;
64085;SDS011;50333;47.436;21.390;2023-01-04T02:54:05;30.25;;;22.27;;
64085;SDS011;50333;47.436;21.390;2023-01-04T03:08:35;31.12;;;21.65;;
64085;SDS011;50333;47.436;21.390;2023-01-04T03:11:12;29.27;;;21.02;;
64085;SDS011;50333;47.436;21.390;2023-01-04T03:14:22;31.55;;;22.60;;
64085;SDS011;50333;47.436;21.390;2023-01-04T03:17:00;40.90;;;26.45;;
64085;SDS011;50333;47.436;21.390;2023-01-04T03:19:34;36.92;;;23.83;;
64085;SDS011;50333;47.436;21.390;2023-01-04T03:25:29;33.47;;;23.85;;
64085;SDS011;50333;47.436;21.390;2023-01-04T03:28:20;32.92;;;22.65;;
64085;SDS011;50333;47.436;21.390;2023-01-04T03:31:21;30.70;;;23.35;;
64085;SDS011;50333;47.436;21.390;2023-01-04T03:34:14;32.60;;;22.87;;
64085;SDS011;50333;47.436;21.390;2023-01-04T03:37:19;31.05;;;22.02;;
64085;SDS011;50333;47.436;21.390;2023-01-04T03:43:07;29.67;;;20.52;;
64085;SDS011;50333;47.436;21.390;2023-01-04T03:46:10;27.70;;;21.05;;
64085;SDS011;50333;47.436;21.390;2023-01-04T03:49:09;30.92;;;21.70;;
64085;SDS011;50333;47.436;21.390;2023-01-04T03:51:44;28.67;;;21.37;;
64085;SDS011;50333;47.436;21.390;2023-01-04T03:54:18;28.12;;;20.50;;
64085;SDS011;50333;47.436;21.390;2023-01-04T03:56:49;30.37;;;22.37;;
64085;SDS011;50333;47.436;21.390;2023-01-04T03:59:19;28.95;;;20.95;;
64085;SDS011;50333;47.436;21.390;2023-01-04T04:01:49;27.35;;;20.15;;
64085;SDS011;50333;47.436;21.390;2023-01-04T04:04:17;27.02;;;19.48;;
64085;SDS011;50333;47.436;21.390;2023-01-04T04:07:04;24.85;;;19.17;;
64085;SDS011;50333;47.436;21.390;2023-01-04T04:09:53;25.37;;;18.83;;
64085;SDS011;50333;47.436;21.390;2023-01-04T04:12:21;20.20;;;16.48;;
64085;SDS011;50333;47.436;21.390;2023-01-04T04:14:49;19.65;;;15.02;;
64085;SDS011;50333;47.436;21.390;2023-01-04T04:17:16;21.55;;;15.77;;
64085;SDS011;50333;47.436;21.390;2023-01-04T04:19:46;22.23;;;15.82;;
64085;SDS011;50333;47.436;21.390;2023-01-04T04:22:13;18.15;;;13.77;;
64085;SDS011;50333;47.436;21.390;2023-01-04T04:24:42;16.67;;;13.15;;
64085;SDS011;50333;47.436;21.390;2023-01-04T04:27:09;19.20;;;13.60;;
64085;SDS011;50333;47.436;21.390;2023-01-04T04:29:38;22.40;;;12.60;;
64085;SDS011;50333;47.436;21.390;2023-01-04T04:32:06;16.42;;;13.20;;
64085;SDS011;50333;47.436;21.390;2023-01-04T04:34:34;19.37;;;13.55;;
64085;SDS011;50333;47.436;21.390;2023-01-04T04:37:02;15.48;;;12.18;;
64085;SDS011;50333;47.436;21.390;2023-01-04T04:39:31;15.10;;;11.43;;
64085;SDS011;50333;47.436;21.390;2023-01-04T04:41:58;15.43;;;11.32;;
64085;SDS011;50333;47.436;21.390;2023-01-04T04:44:26;11.45;;;9.93;;
64085;SDS011;50333;47.436;21.390;2023-01-04T04:46:54;13.25;;;9.38;;
64085;SDS011;50333;47.436;21.390;2023-01-04T04:49:21;12.82;;;10.00;;
64085;SDS011;50333;47.436;21.390;2023-01-04T04:51:50;12.10;;;9.77;;
64085;SDS011;50333;47.436;21.390;2023-01-04T04:54:18;13.15;;;9.32;;
64085;SDS011;50333;47.436;21.390;2023-01-04T04:56:47;12.10;;;9.82;;
64085;SDS011;50333;47.436;21.390;2023-01-04T04:59:16;10.23;;;8.43;;
64085;SDS011;50333;47.436;21.390;2023-01-04T05:01:44;12.40;;;8.77;;
64085;SDS011;50333;47.436;21.390;2023-01-04T05:04:12;11.63;;;9.00;;
64085;SDS011;50333;47.436;21.390;2023-01-04T05:06:43;12.85;;;9.40;;
64085;SDS011;50333;47.436;21.390;2023-01-04T05:09:12;12.20;;;8.70;;
64085;SDS011;50333;47.436;21.390;2023-01-04T05:11:40;11.38;;;9.05;;
64085;SDS011;50333;47.436;21.390;2023-01-04T05:14:27;10.10;;;8.35;;
64085;SDS011;50333;47.436;21.390;2023-01-04T05:16:55;13.23;;;10.85;;
64085;SDS011;50333;47.436;21.390;2023-01-04T05:19:22;17.08;;;12.98;;
64085;SDS011;50333;47.436;21.390;2023-01-04T05:21:50;17.83;;;13.07;;
64085;SDS011;50333;47.436;21.390;2023-01-04T05:24:18;16.33;;;12.05;;
64085;SDS011;50333;47.436;21.390;2023-01-04T05:26:45;20.88;;;15.40;;
64085;SDS011;50333;47.436;21.390;2023-01-04T05:29:13;18.15;;;13.30;;
64085;SDS011;50333;47.436;21.390;2023-01-04T05:32:01;15.52;;;10.75;;
64085;SDS011;50333;47.436;21.390;2023-01-04T05:34:29;14.95;;;10.00;;
64085;SDS011;50333;47.436;21.390;2023-01-04T05:36:56;17.10;;;10.45;;
64085;SDS011;50333;47.436;21.390;2023-01-04T05:39:24;14.32;;;10.13;;
64085;SDS011;50333;47.436;21.390;2023-01-04T05:41:52;22.25;;;13.90;;
64085;SDS011;50333;47.436;21.390;2023-01-04T05:44:38;35.33;;;19.52;;
64085;SDS011;50333;47.436;21.390;2023-01-04T05:47:06;31.45;;;17.77;;
64085;SDS011;50333;47.436;21.390;2023-01-04T05:49:41;15.88;;;11.93;;
64085;SDS011;50333;47.436;21.390;2023-01-04T05:52:09;19.87;;;12.05;;
64085;SDS011;50333;47.436;21.390;2023-01-04T05:54:37;16.20;;;10.18;;
64085;SDS011;50333;47.436;21.390;2023-01-04T05:57:05;16.25;;;10.50;;
64085;SDS011;50333;47.436;21.390;2023-01-04T05:59:34;13.13;;;10.35;;
64085;SDS011;50333;47.436;21.390;2023-01-04T06:02:18;18.85;;;10.38;;
64085;SDS011;50333;47.436;21.390;2023-01-04T06:04:51;14.10;;;9.65;;
64085;SDS011;50333;47.436;21.390;2023-01-04T06:07:25;14.32;;;9.40;;
64085;SDS011;50333;47.436;21.390;2023-01-04T06:09:57;16.62;;;11.00;;
64085;SDS011;50333;47.436;21.390;2023-01-04T06:12:26;12.63;;;9.45;;
64085;SDS011;50333;47.436;21.390;2023-01-04T06:14:53;14.40;;;9.77;;
64085;SDS011;50333;47.436;21.390;2023-01-04T06:17:21;12.35;;;9.13;;
64085;SDS011;50333;47.436;21.390;2023-01-04T06:19:50;12.70;;;9.27;;
64085;SDS011;50333;47.436;21.390;2023-01-04T06:22:18;13.82;;;9.93;;
64085;SDS011;50333;47.436;21.390;2023-01-04T06:24:46;13.43;;;9.80;;
64085;SDS011;50333;47.436;21.390;2023-01-04T06:27:14;13.95;;;10.68;;
64085;SDS011;50333;47.436;21.390;2023-01-04T06:29:43;61.35;;;48.25;;
64085;SDS011;50333;47.436;21.390;2023-01-04T06:32:11;33.58;;;23.23;;
64085;SDS011;50333;47.436;21.390;2023-01-04T06:34:38;38.58;;;27.67;;
64085;SDS011;50333;47.436;21.390;2023-01-04T06:37:06;30.10;;;23.52;;
64085;SDS011;50333;47.436;21.390;2023-01-04T06:39:34;27.08;;;20.00;;
64085;SDS011;50333;47.436;21.390;2023-01-04T06:42:03;31.15;;;21.77;;
64085;SDS011;50333;47.436;21.390;2023-01-04T06:44:33;43.95;;;33.95;;
64085;SDS011;50333;47.436;21.390;2023-01-04T06:47:01;41.65;;;29.63;;
64085;SDS011;50333;47.436;21.390;2023-01-04T06:49:29;30.17;;;22.00;;
64085;SDS011;50333;47.436;21.390;2023-01-04T06:51:57;30.75;;;22.87;;
64085;SDS011;50333;47.436;21.390;2023-01-04T06:54:24;27.45;;;20.80;;
64085;SDS011;50333;47.436;21.390;2023-01-04T06:56:53;22.52;;;17.30;;
64085;SDS011;50333;47.436;21.390;2023-01-04T06:59:21;20.65;;;17.45;;
64085;SDS011;50333;47.436;21.390;2023-01-04T07:01:48;21.73;;;15.23;;
64085;SDS011;50333;47.436;21.390;2023-01-04T07:04:16;26.65;;;16.35;;
64085;SDS011;50333;47.436;21.390;2023-01-04T07:06:44;19.42;;;16.35;;
64085;SDS011;50333;47.436;21.390;2023-01-04T07:09:12;20.08;;;15.43;;
64085;SDS011;50333;47.436;21.390;2023-01-04T07:11:40;24.63;;;15.95;;
64085;SDS011;50333;47.436;21.390;2023-01-04T07:14:08;21.12;;;15.52;;
64085;SDS011;50333;47.436;21.390;2023-01-04T07:16:35;19.85;;;13.30;;
64085;SDS011;50333;47.436;21.390;2023-01-04T07:19:03;17.48;;;13.45;;
64085;SDS011;50333;47.436;21.390;2023-01-04T07:21:31;34.47;;;21.67;;
64085;SDS011;50333;47.436;21.390;2023-01-04T07:23:59;34.00;;;21.12;;
64085;SDS011;50333;47.436;21.390;2023-01-04T07:26:27;27.10;;;19.33;;
64085;SDS011;50333;47.436;21.390;2023-01-04T07:28:55;35.45;;;21.35;;
64085;SDS011;50333;47.436;21.390;2023-01-04T07:31:41;32.03;;;18.02;;
64085;SDS011;50333;47.436;21.390;2023-01-04T07:34:11;20.90;;;14.77;;
64085;SDS011;50333;47.436;21.390;2023-01-04T07:36:39;22.08;;;14.45;;
64085;SDS011;50333;47.436;21.390;2023-01-04T07:39:07;21.87;;;14.73;;
64085;SDS011;50333;47.436;21.390;2023-01-04T07:41:39;22.52;;;13.77;;
64085;SDS011;50333;47.436;21.390;2023-01-04T07:44:08;17.77;;;13.02;;
64085;SDS011;50333;47.436;21.390;2023-01-04T07:46:36;19.62;;;12.85;;
64085;SDS011;50333;47.436;21.390;2023-01-04T07:49:05;18.85;;;12.90;;
64085;SDS011;50333;47.436;21.390;2023-01-04T07:51:40;15.40;;;11.10;;
64085;SDS011;50333;47.436;21.390;2023-01-04T07:54:09;12.18;;;9.52;;
64085;SDS011;50333;47.436;21.390;2023-01-04T07:56:37;13.10;;;8.50;;
64085;SDS011;50333;47.436;21.390;2023-01-04T07:59:06;12.60;;;9.23;;
64085;SDS011;50333;47.436;21.390;2023-01-04T08:01:35;11.27;;;8.20;;
64085;SDS011;50333;47.436;21.390;2023-01-04T08:04:05;12.85;;;8.50;;
64085;SDS011;50333;47.436;21.390;2023-01-04T08:06:35;11.57;;;7.30;;
64085;SDS011;50333;47.436;21.390;2023-01-04T08:09:03;16.30;;;10.73;;
64085;SDS011;50333;47.436;21.390;2023-01-04T08:11:34;8.70;;;6.35;;
64085;SDS011;50333;47.436;21.390;2023-01-04T08:14:01;9.43;;;6.57;;
64085;SDS011;50333;47.436;21.390;2023-01-04T08:16:34;8.90;;;7.03;;
64085;SDS011;50333;47.436;21.390;2023-01-04T08:19:10;8.65;;;6.30;;
64085;SDS011;50333;47.436;21.390;2023-01-04T08:21:40;10.02;;;7.43;;
64085;SDS011;50333;47.436;21.390;2023-01-04T08:24:13;11.32;;;7.22;;
64085;SDS011;50333;47.436;21.390;2023-01-04T08:26:42;8.95;;;6.90;;
64085;SDS011;50333;47.436;21.390;2023-01-04T08:29:11;9.93;;;8.25;;
64085;SDS011;50333;47.436;21.390;2023-01-04T08:31:40;9.75;;;7.60;;
64085;SDS011;50333;47.436;21.390;2023-01-04T08:34:08;8.68;;;7.30;;
64085;SDS011;50333;47.436;21.390;2023-01-04T08:37:10;13.57;;;8.93;;
64085;SDS011;50333;47.436;21.390;2023-01-04T08:39:30;11.82;;;9.07;;
64085;SDS011;50333;47.436;21.390;2023-01-04T08:42:02;12.02;;;9.25;;
64085;SDS011;50333;47.436;21.390;2023-01-04T08:44:47;11.20;;;8.30;;
64085;SDS011;50333;47.436;21.390;2023-01-04T08:47:14;9.55;;;8.32;;
64085;SDS011;50333;47.436;21.390;2023-01-04T08:49:46;10.82;;;7.75;;
64085;SDS011;50333;47.436;21.390;2023-01-04T08:52:14;9.90;;;7.97;;
64085;SDS011;50333;47.436;21.390;2023-01-04T08:54:42;11.15;;;7.80;;
64085;SDS011;50333;47.436;21.390;2023-01-04T08:57:09;12.13;;;8.35;;
64085;SDS011;50333;47.436;21.390;2023-01-04T08:59:38;11.57;;;8.82;;
64085;SDS011;50333;47.436;21.390;2023-01-04T09:04:51;11.88;;;9.02;;
64085;SDS011;50333;47.436;21.390;2023-01-04T09:07:19;12.48;;;9.32;;
64085;SDS011;50333;47.436;21.390;2023-01-04T09:09:50;10.05;;;7.78;;
64085;SDS011;50333;47.436;21.390;2023-01-04T09:12:18;11.93;;;7.90;;
64085;SDS011;50333;47.436;21.390;2023-01-04T09:14:45;9.27;;;7.50;;
64085;SDS011;50333;47.436;21.390;2023-01-04T09:17:13;11.75;;;8.52;;
64085;SDS011;50333;47.436;21.390;2023-01-04T09:19:44;9.38;;;7.85;;
64085;SDS011;50333;47.436;21.390;2023-01-04T09:22:12;11.82;;;7.30;;
64085;SDS011;50333;47.436;21.390;2023-01-04T09:24:40;9.80;;;7.20;;
64085;SDS011;50333;47.436;21.390;2023-01-04T09:27:08;10.18;;;7.35;;
64085;SDS011;50333;47.436;21.390;2023-01-04T09:29:39;10.57;;;7.60;;
64085;SDS011;50333;47.436;21.390;2023-01-04T09:32:08;10.25;;;7.25;;
64085;SDS011;50333;47.436;21.390;2023-01-04T09:34:43;8.93;;;6.80;;
64085;SDS011;50333;47.436;21.390;2023-01-04T09:37:11;7.70;;;6.90;;
64085;SDS011;50333;47.436;21.390;2023-01-04T09:39:40;9.98;;;6.90;;
64085;SDS011;50333;47.436;21.390;2023-01-04T09:42:42;9.50;;;7.32;;
64085;SDS011;50333;47.436;21.390;2023-01-04T09:45:10;9.93;;;7.90;;
64085;SDS011;50333;47.436;21.390;2023-01-04T09:48:05;9.63;;;8.05;;
64085;SDS011;50333;47.436;21.390;2023-01-04T09:50:47;12.75;;;7.78;;
64085;SDS011;50333;47.436;21.390;2023-01-04T09:53:30;10.95;;;8.63;;
64085;SDS011;50333;47.436;21.390;2023-01-04T09:56:15;8.77;;;7.70;;
64085;SDS011;50333;47.436;21.390;2023-01-04T09:58:49;13.55;;;7.65;;
64085;SDS011;50333;47.436;21.390;2023-01-04T10:01:23;11.57;;;8.00;;
64085;SDS011;50333;47.436;21.390;2023-01-04T10:06:45;12.85;;;6.72;;
64085;SDS011;50333;47.436;21.390;2023-01-04T10:09:13;8.18;;;6.57;;
64085;SDS011;50333;47.436;21.390;2023-01-04T10:34:22;17.20;;;11.10;;
64085;SDS011;50333;47.436;21.390;2023-01-04T10:36:58;7.07;;;6.20;;
64085;SDS011;50333;47.436;21.390;2023-01-04T10:39:31;7.62;;;6.53;;
64085;SDS011;50333;47.436;21.390;2023-01-04T10:42:09;8.90;;;7.30;;
64085;SDS011;50333;47.436;21.390;2023-01-04T10:47:34;7.80;;;6.32;;
64085;SDS011;50333;47.436;21.390;2023-01-04T10:50:50;8.35;;;6.62;;
64085;SDS011;50333;47.436;21.390;2023-01-04T11:01:21;7.15;;;6.05;;
64085;SDS011;50333;47.436;21.390;2023-01-04T11:04:01;8.48;;;6.40;;
64085;SDS011;50333;47.436;21.390;2023-01-04T11:06:48;6.43;;;5.78;;
64085;SDS011;50333;47.436;21.390;2023-01-04T11:12:13;6.72;;;5.43;;
64085;SDS011;50333;47.436;21.390;2023-01-04T11:14:43;7.05;;;5.97;;
64085;SDS011;50333;47.436;21.390;2023-01-04T11:17:11;6.62;;;4.78;;
64085;SDS011;50333;47.436;21.390;2023-01-04T11:19:39;6.80;;;5.20;;
64085;SDS011;50333;47.436;21.390;2023-01-04T11:22:17;6.72;;;5.20;;
64085;SDS011;50333;47.436;21.390;2023-01-04T11:25:14;6.78;;;5.00;;
64085;SDS011;50333;47.436;21.390;2023-01-04T11:31:04;5.47;;;4.78;;
64085;SDS011;50333;47.436;21.390;2023-01-04T11:34:00;6.78;;;4.95;;
64085;SDS011;50333;47.436;21.390;2023-01-04T11:36:42;5.53;;;4.53;;
64085;SDS011;50333;47.436;21.390;2023-01-04T11:39:21;4.95;;;4.40;;
64085;SDS011;50333;47.436;21.390;2023-01-04T11:41:57;5.57;;;4.37;;
64085;SDS011;50333;47.436;21.390;2023-01-04T11:44:33;4.68;;;4.12;;
64085;SDS011;50333;47.436;21.390;2023-01-04T11:49:46;4.72;;;4.03;;
64085;SDS011;50333;47.436;21.390;2023-01-04T11:52:29;5.95;;;4.35;;
64085;SDS011;50333;47.436;21.390;2023-01-04T11:58:08;5.43;;;4.00;;
64085;SDS011;50333;47.436;21.390;2023-01-04T12:00:38;5.00;;;4.50;;
64085;SDS011;50333;47.436;21.390;2023-01-04T12:03:24;5.07;;;3.95;;
64085;SDS011;50333;47.436;21.390;2023-01-04T12:05:58;6.93;;;4.47;;
64085;SDS011;50333;47.436;21.390;2023-01-04T12:08:27;4.12;;;3.72;;
64085;SDS011;50333;47.436;21.390;2023-01-04T12:10:58;5.47;;;4.07;;
64085;SDS011;50333;47.436;21.390;2023-01-04T12:18:40;4.47;;;3.83;;
64085;SDS011;50333;47.436;21.390;2023-01-04T12:21:13;4.60;;;3.83;;
64085;SDS011;50333;47.436;21.390;2023-01-04T12:23:45;3.78;;;3.37;;
64085;SDS011;50333;47.436;21.390;2023-01-04T12:26:14;5.65;;;3.95;;
64085;SDS011;50333;47.436;21.390;2023-01-04T12:28:44;5.53;;;3.33;;
64085;SDS011;50333;47.436;21.390;2023-01-04T12:33:49;3.67;;;3.33;;
64085;SDS011;50333;47.436;21.390;2023-01-04T12:36:19;4.82;;;3.72;;
64085;SDS011;50333;47.436;21.390;2023-01-04T12:41:23;4.80;;;3.78;;
64085;SDS011;50333;47.436;21.390;2023-01-04T12:57:58;3.65;;;3.30;;
64085;SDS011;50333;47.436;21.390;2023-01-04T13:01:06;7.80;;;3.78;;
64085;SDS011;50333;47.436;21.390;2023-01-04T13:03:43;8.38;;;4.20;;
64085;SDS011;50333;47.436;21.390;2023-01-04T13:06:15;8.50;;;4.57;;
64085;SDS011;50333;47.436;21.390;2023-01-04T13:08:47;6.40;;;4.78;;
64085;SDS011;50333;47.436;21.390;2023-01-04T13:11:23;9.33;;;4.67;;
64085;SDS011;50333;47.436;21.390;2023-01-04T13:14:05;6.35;;;5.07;;
64085;SDS011;50333;47.436;21.390;2023-01-04T13:19:21;6.87;;;5.40;;
64085;SDS011;50333;47.436;21.390;2023-01-04T13:21:51;6.40;;;5.30;;
64085;SDS011;50333;47.436;21.390;2023-01-04T13:26:54;10.93;;;9.50;;
64085;SDS011;50333;47.436;21.390;2023-01-04T13:29:25;13.88;;;11.82;;
64085;SDS011;50333;47.436;21.390;2023-01-04T13:37:30;13.27;;;11.88;;
64085;SDS011;50333;47.436;21.390;2023-01-04T13:42:44;14.50;;;12.15;;
64085;SDS011;50333;47.436;21.390;2023-01-04T13:45:19;12.63;;;11.32;;
64085;SDS011;50333;47.436;21.390;2023-01-04T13:48:04;14.20;;;12.07;;
64085;SDS011;50333;47.436;21.390;2023-01-04T13:50:57;14.45;;;11.65;;
64085;SDS011;50333;47.436;21.390;2023-01-04T13:53:31;15.40;;;13.05;;
64085;SDS011;50333;47.436;21.390;2023-01-04T13:56:00;16.73;;;13.62;;
64085;SDS011;50333;47.436;21.390;2023-01-04T13:58:30;17.42;;;14.43;;
64085;SDS011;50333;47.436;21.390;2023-01-04T14:01:04;18.27;;;15.27;;
64085;SDS011;50333;47.436;21.390;2023-01-04T14:03:35;21.42;;;16.23;;
64085;SDS011;50333;47.436;21.390;2023-01-04T14:08:39;30.02;;;17.83;;
64085;SDS011;50333;47.436;21.390;2023-01-04T14:11:16;27.20;;;18.67;;
64085;SDS011;50333;47.436;21.390;2023-01-04T14:14:18;26.05;;;18.60;;
64085;SDS011;50333;47.436;21.390;2023-01-04T14:22:37;37.63;;;17.48;;
64085;SDS011;50333;47.436;21.390;2023-01-04T14:33:36;25.02;;;18.90;;
64085;SDS011;50333;47.436;21.390;2023-01-04T14:38:38;35.35;;;18.80;;
64085;SDS011;50333;47.436;21.390;2023-01-04T14:46:27;104.72;;;22.90;;
64085;SDS011;50333;47.436;21.390;2023-01-04T14:48:57;60.28;;;21.12;;
64085;SDS011;50333;47.436;21.390;2023-01-04T14:51:29;55.28;;;22.62;;
64085;SDS011;50333;47.436;21.390;2023-01-04T14:54:01;37.90;;;21.62;;
64085;SDS011;50333;47.436;21.390;2023-01-04T14:56:29;30.42;;;22.55;;
64085;SDS011;50333;47.436;21.390;2023-01-04T14:58:57;48.60;;;21.17;;
64085;SDS011;50333;47.436;21.390;2023-01-04T15:01:25;81.47;;;19.98;;
64085;SDS011;50333;47.436;21.390;2023-01-04T15:03:53;68.93;;;19.73;;
64085;SDS011;50333;47.436;21.390;2023-01-04T15:06:20;46.50;;;21.08;;
64085;SDS011;50333;47.436;21.390;2023-01-04T15:08:48;34.08;;;21.15;;
64085;SDS011;50333;47.436;21.390;2023-01-04T15:11:16;43.63;;;22.73;;
64085;SDS011;50333;47.436;21.390;2023-01-04T15:13:45;43.05;;;22.65;;
64085;SDS011;50333;47.436;21.390;2023-01-04T15:16:13;151.80;;;24.20;;
64085;SDS011;50333;47.436;21.390;2023-01-04T15:18:44;93.47;;;24.95;;
64085;SDS011;50333;47.436;21.390;2023-01-04T15:21:12;72.70;;;26.33;;
64085;SDS011;50333;47.436;21.390;2023-01-04T15:23:40;94.80;;;24.83;;
64085;SDS011;50333;47.436;21.390;2023-01-04T15:26:09;84.62;;;25.50;;
64085;SDS011;50333;47.436;21.390;2023-01-04T15:28:38;65.12;;;26.87;;
64085;SDS011;50333;47.436;21.390;2023-01-04T15:31:11;42.03;;;25.62;;
64085;SDS011;50333;47.436;21.390;2023-01-04T15:33:40;47.58;;;25.45;;
64085;SDS011;50333;47.436;21.390;2023-01-04T15:36:09;33.60;;;23.92;;
64085;SDS011;50333;47.436;21.390;2023-01-04T15:38:46;34.70;;;24.02;;
64085;SDS011;50333;47.436;21.390;2023-01-04T15:41:15;70.18;;;25.75;;
64085;SDS011;50333;47.436;21.390;2023-01-04T15:44:03;54.75;;;27.35;;
64085;SDS011;50333;47.436;21.390;2023-01-04T15:46:30;84.22;;;28.12;;
64085;SDS011;50333;47.436;21.390;2023-01-04T15:48:58;48.17;;;27.67;;
64085;SDS011;50333;47.436;21.390;2023-01-04T15:51:26;42.80;;;27.77;;
64085;SDS011;50333;47.436;21.390;2023-01-04T15:53:54;81.22;;;30.08;;
64085;SDS011;50333;47.436;21.390;2023-01-04T15:56:22;58.85;;;29.70;;
64085;SDS011;50333;47.436;21.390;2023-01-04T15:58:51;46.05;;;29.73;;
64085;SDS011;50333;47.436;21.390;2023-01-04T16:01:21;162.95;;;28.23;;
64085;SDS011;50333;47.436;21.390;2023-01-04T16:03:49;73.28;;;26.80;;
64085;SDS011;50333;47.436;21.390;2023-01-04T16:06:20;86.70;;;27.00;;
64085;SDS011;50333;47.436;21.390;2023-01-04T16:08:50;45.50;;;29.17;;
64085;SDS011;50333;47.436;21.390;2023-01-04T16:11:20;50.55;;;28.35;;
64085;SDS011;50333;47.436;21.390;2023-01-04T16:13:50;50.78;;;30.12;;
64085;SDS011;50333;47.436;21.390;2023-01-04T16:16:19;75.18;;;30.45;;
64085;SDS011;50333;47.436;21.390;2023-01-04T16:18:49;50.30;;;29.02;;
64085;SDS011;50333;47.436;21.390;2023-01-04T16:21:19;55.97;;;30.40;;
64085;SDS011;50333;47.436;21.390;2023-01-04T16:23:50;70.25;;;29.73;;
64085;SDS011;50333;47.436;21.390;2023-01-04T16:26:24;75.22;;;30.95;;
64085;SDS011;50333;47.436;21.390;2023-01-04T16:28:53;45.97;;;30.73;;
64085;SDS011;50333;47.436;21.390;2023-01-04T16:31:21;59.13;;;30.92;;
64085;SDS011;50333;47.436;21.390;2023-01-04T16:33:50;49.70;;;31.73;;
64085;SDS011;50333;47.436;21.390;2023-01-04T16:36:19;66.22;;;30.83;;
64085;SDS011;50333;47.436;21.390;2023-01-04T16:38:47;52.67;;;32.83;;
64085;SDS011;50333;47.436;21.390;2023-01-04T16:41:16;53.65;;;31.70;;
64085;SDS011;50333;47.436;21.390;2023-01-04T16:43:48;55.45;;;29.95;;
64085;SDS011;50333;47.436;21.390;2023-01-04T16:49:03;51.28;;;29.95;;
64085;SDS011;50333;47.436;21.390;2023-01-04T16:51:32;45.97;;;30.52;;
64085;SDS011;50333;47.436;21.390;2023-01-04T16:54:02;55.33;;;31.10;;
64085;SDS011;50333;47.436;21.390;2023-01-04T16:56:32;61.25;;;32.42;;
64085;SDS011;50333;47.436;21.390;2023-01-04T16:59:01;62.15;;;32.47;;
64085;SDS011;50333;47.436;21.390;2023-01-04T17:01:30;55.12;;;32.10;;
64085;SDS011;50333;47.436;21.390;2023-01-04T17:04:04;55.58;;;34.55;;
64085;SDS011;50333;47.436;21.390;2023-01-04T17:06:36;54.28;;;31.48;;
64085;SDS011;50333;47.436;21.390;2023-01-04T17:09:06;52.47;;;32.58;;
64085;SDS011;50333;47.436;21.390;2023-01-04T17:11:37;71.10;;;34.60;;
64085;SDS011;50333;47.436;21.390;2023-01-04T17:14:25;62.80;;;34.47;;
64085;SDS011;50333;47.436;21.390;2023-01-04T17:16:55;59.50;;;33.33;;
64085;SDS011;50333;47.436;21.390;2023-01-04T17:19:23;50.92;;;31.25;;
64085;SDS011;50333;47.436;21.390;2023-01-04T17:21:52;45.60;;;28.05;;
64085;SDS011;50333;47.436;21.390;2023-01-04T17:24:19;46.00;;;28.40;;
64085;SDS011;50333;47.436;21.390;2023-01-04T17:26:47;47.92;;;27.70;;
64085;SDS011;50333;47.436;21.390;2023-01-04T17:29:15;44.88;;;27.27;;